Time,TemperatureF,DewpointF,PressureIn,WindDirection,WindDirectionDegrees,WindSpeedMPH,WindSpeedGustMPH,Humidity,HourlyPrecipIn,Conditions,Clouds,dailyrainin,SoftwareType,DateUTC
2013-11-09 00:00:00,48.0,43.1,29.93,SSE,150,0.0,0.0,83,0.00,CLR,,0.00,WeatherDisplay:10.37,2013-11-09 08:00:00,
2013-11-09 00:15:00,47.5,43.2,29.93,SSE,150,0.0,0.0,85,0.00,CLR,,0.00,WeatherDisplay:10.37,2013-11-09 08:15:00,
2013-11-09 00:30:00,47.1,42.8,29.93,SSE,150,0.0,0.0,85,0.00,CLR,,0.00,WeatherDisplay:10.37,2013-11-09 08:30:00,
2013-11-09 00:45:00,46.5,42.2,29.93,SSE,150,0.0,0.0,85,0.00,CLR,,0.00,WeatherDisplay:10.37,2013-11-09 08:45:00,
2013-11-09 01:00:00,45.9,41.9,29.93,SSE,150,0.0,0.0,86,0.00,CLR,,0.00,WeatherDisplay:10.37,2013-11-09 09:00:00,
2013-11-09 01:15:00,45.6,41.9,29.93,SSE,150,0.0,0.0,87,0.00,CLR,,0.00,WeatherDisplay:10.37,2013-11-09 09:15:00,
2013-11-09 01:30:00,45.2,41.6,29.93,SSE,150,0.0,0.0,87,0.00,CLR,,0.00,WeatherDisplay:10.37,2013-11-09 09:30:00,
2013-11-09 01:45:00,44.8,41.2,29.93,SSE,150,0.0,0.0,87,0.00,CLR,,0.00,WeatherDisplay:10.37,2013-11-09 09:45:00,
2013-11-09 02:00:00,44.6,41.3,29.93,SSE,150,0.0,0.0,88,0.00,CLR,,0.00,WeatherDisplay:10.37,2013-11-09 10:00:00,
2013-11-09 02:15:00,44.3,40.9,29.93,SSE,150,0.0,0.0,88,0.00,CLR,,0.00,WeatherDisplay:10.37,2013-11-09 10:15:00,
2013-11-09 02:30:00,43.9,40.9,29.93,SSE,150,0.0,0.0,89,0.00,CLR,,0.00,WeatherDisplay:10.37,2013-11-09 10:30:00,
2013-11-09 02:45:00,44.0,41.3,29.93,SSE,150,0.0,0.0,90,0.00,CLR,,0.00,WeatherDisplay:10.37,2013-11-09 10:45:00,
2013-11-09 03:00:00,43.9,40.9,29.93,SSE,150,0.0,0.0,89,0.00,CLR,,0.00,WeatherDisplay:10.37,2013-11-09 11:00:00,
2013-11-09 03:15:00,43.6,40.6,29.93,SSE,150,0.0,0.0,89,0.00,BKN,,0.00,WeatherDisplay:10.37,2013-11-09 11:15:00,
2013-11-09 03:30:00,43.5,40.7,29.93,SSE,150,0.0,0.0,90,0.00,BKN,,0.00,WeatherDisplay:10.37,2013-11-09 11:30:00,
2013-11-09 03:45:00,43.2,40.5,29.93,SSE,150,0.0,0.0,90,0.00,FEW,,0.00,WeatherDisplay:10.37,2013-11-09 11:45:00,
2013-11-09 04:00:00,42.9,40.2,29.93,SSE,150,0.0,0.0,90,0.00,FEW,,0.00,WeatherDisplay:10.37,2013-11-09 12:00:00,
2013-11-09 04:15:00,42.8,40.4,29.93,SSE,150,0.0,0.0,91,0.00,CLR,,0.00,WeatherDisplay:10.37,2013-11-09 12:15:00,
2013-11-09 04:30:00,42.6,40.2,29.93,SSE,150,0.0,0.0,91,0.00,CLR,,0.00,WeatherDisplay:10.37,2013-11-09 12:30:00,
2013-11-09 04:45:00,42.5,40.1,29.93,SSE,150,0.0,0.0,91,0.00,SCT,,0.00,WeatherDisplay:10.37,2013-11-09 12:45:00,
2013-11-09 05:00:00,42.3,39.9,29.94,SSE,150,0.0,0.0,91,0.00,SCT,,0.00,WeatherDisplay:10.37,2013-11-09 13:00:00,
2013-11-09 05:15:00,42.2,40.1,29.94,SSE,150,0.0,0.0,92,0.00,SCT,,0.00,WeatherDisplay:10.37,2013-11-09 13:15:00,
2013-11-09 05:30:00,42.1,39.7,29.94,SSE,150,0.0,0.0,91,0.00,SCT,,0.00,WeatherDisplay:10.37,2013-11-09 13:30:00,
2013-11-09 05:45:00,41.9,39.7,29.94,SSE,150,0.0,0.0,92,0.00,SCT,,0.00,WeatherDisplay:10.37,2013-11-09 13:45:00,
2013-11-09 06:00:00,41.9,39.7,29.94,SSE,150,0.0,0.0,92,0.00,SCT,,0.00,WeatherDisplay:10.37,2013-11-09 14:00:00,
2013-11-09 06:15:00,41.8,39.7,29.94,SSE,150,0.0,0.0,92,0.00,OVC,,0.00,WeatherDisplay:10.37,2013-11-09 14:15:00,
2013-11-09 06:30:00,42.0,39.8,29.94,SSE,150,0.0,0.0,92,0.00,OVC,,0.00,WeatherDisplay:10.37,2013-11-09 14:30:00,
2013-11-09 06:45:00,41.9,39.7,29.94,SSE,150,0.0,0.0,92,0.00,OVC,,0.00,WeatherDisplay:10.37,2013-11-09 14:45:00,
2013-11-09 07:00:00,41.7,39.5,29.95,SSE,150,0.0,0.0,92,0.00,OVC,,0.00,WeatherDisplay:10.37,2013-11-09 15:00:00,
2013-11-09 07:15:00,41.8,39.9,29.95,SSE,150,0.0,0.0,93,0.00,SCT,,0.00,WeatherDisplay:10.37,2013-11-09 15:15:00,
2013-11-09 07:30:00,42.7,41.1,29.95,SSE,150,0.0,0.0,94,0.00,SCT,,0.00,WeatherDisplay:10.37,2013-11-09 15:30:00,
2013-11-09 07:45:00,43.8,42.2,29.96,SSE,150,0.0,0.0,94,0.00,SCT,,0.00,WeatherDisplay:10.37,2013-11-09 15:45:00,
2013-11-09 08:00:00,45.5,44.2,29.96,SSE,150,0.0,0.0,95,0.00,SCT,,0.00,WeatherDisplay:10.37,2013-11-09 16:00:00,
2013-11-09 08:15:00,47.3,46.0,29.96,SSE,150,0.0,0.0,95,0.00,FEW,,0.00,WeatherDisplay:10.37,2013-11-09 16:15:00,
2013-11-09 08:30:00,49.9,48.2,29.96,SSE,150,0.0,0.0,94,0.00,FEW,,0.00,WeatherDisplay:10.37,2013-11-09 16:30:00,
2013-11-09 08:45:00,53.2,50.3,29.96,SSE,150,0.0,0.0,90,0.00,FEW,,0.00,WeatherDisplay:10.37,2013-11-09 16:45:00,
2013-11-09 09:00:00,56.1,51.0,29.96,SSE,150,0.0,1.0,83,0.00,FEW,,0.00,WeatherDisplay:10.37,2013-11-09 17:00:00,
2013-11-09 09:15:00,57.9,50.4,29.96,SSE,150,0.0,2.0,76,0.00,SCT,,0.00,WeatherDisplay:10.37,2013-11-09 17:15:00,
2013-11-09 09:30:00,57.6,50.4,29.96,SSE,150,1.0,3.0,77,0.00,SCT,,0.00,WeatherDisplay:10.37,2013-11-09 17:30:00,
2013-11-09 09:45:00,57.0,50.6,29.96,SSE,150,0.0,1.0,79,0.00,SCT,,0.00,WeatherDisplay:10.37,2013-11-09 17:45:00,
2013-11-09 10:00:00,58.9,50.9,29.96,SSE,150,0.0,3.0,75,0.00,SCT,,0.00,WeatherDisplay:10.37,2013-11-09 18:00:00,
2013-11-09 10:15:00,59.9,51.6,29.96,South,179,0.0,2.0,74,0.00,SCT,,0.00,WeatherDisplay:10.37,2013-11-09 18:15:00,
2013-11-09 10:30:00,62.4,51.3,29.96,West,259,0.0,2.0,67,0.00,SCT,,0.00,WeatherDisplay:10.37,2013-11-09 18:30:00,
2013-11-09 10:45:00,63.8,51.4,29.95,West,278,0.0,4.0,64,0.00,SCT,,0.00,WeatherDisplay:10.37,2013-11-09 18:45:00,
2013-11-09 11:00:00,65.1,51.7,29.95,SW,230,0.0,4.0,62,0.00,SCT,,0.00,WeatherDisplay:10.37,2013-11-09 19:00:00,
2013-11-09 11:15:00,64.3,50.6,29.94,SE,132,0.0,4.0,61,0.00,SCT,,0.00,WeatherDisplay:10.37,2013-11-09 19:15:00,
2013-11-09 11:30:00,63.6,50.3,29.94,ESE,123,0.0,4.0,62,0.00,SCT,,0.00,WeatherDisplay:10.37,2013-11-09 19:30:00,
2013-11-09 11:45:00,65.4,50.7,29.93,South,175,1.0,4.0,59,0.00,SCT,,0.00,WeatherDisplay:10.37,2013-11-09 19:45:00,
2013-11-09 12:00:00,65.8,50.6,29.93,South,187,1.0,5.0,58,0.00,SCT,,0.00,WeatherDisplay:10.37,2013-11-09 20:00:00,
2013-11-09 12:15:00,66.4,52.1,29.92,SSE,149,1.0,4.0,60,0.00,SCT,,0.00,WeatherDisplay:10.37,2013-11-09 20:15:00,
2013-11-09 12:30:00,67.1,53.6,29.91,SSE,150,0.0,6.0,62,0.00,SCT,,0.00,WeatherDisplay:10.37,2013-11-09 20:30:00,
2013-11-09 12:45:00,68.7,53.3,29.90,SW,221,0.0,5.0,58,0.00,SCT,,0.00,WeatherDisplay:10.37,2013-11-09 20:45:00,
2013-11-09 13:00:00,68.6,53.7,29.90,SSW,196,0.0,5.0,59,0.00,SCT,,0.00,WeatherDisplay:10.37,2013-11-09 21:00:00,
2013-11-09 13:15:00,68.8,52.5,29.90,South,173,0.0,4.0,56,0.00,SCT,,0.00,WeatherDisplay:10.37,2013-11-09 21:15:00,
2013-11-09 13:30:00,69.2,54.3,29.90,SW,224,1.0,6.0,59,0.00,SCT,,0.00,WeatherDisplay:10.37,2013-11-09 21:30:00,
2013-11-09 13:45:00,68.3,53.9,29.90,South,189,2.0,6.0,60,0.00,SCT,,0.00,WeatherDisplay:10.37,2013-11-09 21:45:00,
2013-11-09 14:00:00,67.8,53.4,29.89,SSE,165,0.0,5.0,60,0.00,SCT,,0.00,WeatherDisplay:10.37,2013-11-09 22:00:00,
2013-11-09 14:15:00,68.4,51.6,29.90,SSE,160,0.0,3.0,55,0.00,SCT,,0.00,WeatherDisplay:10.37,2013-11-09 22:15:00,
2013-11-09 14:30:00,69.3,51.4,29.89,SW,217,0.0,3.0,53,0.00,SCT,,0.00,WeatherDisplay:10.37,2013-11-09 22:30:00,
2013-11-09 14:45:00,69.3,51.4,29.89,SW,231,0.0,5.0,53,0.00,SCT,,0.00,WeatherDisplay:10.37,2013-11-09 22:45:00,
2013-11-09 15:00:00,69.3,50.4,29.89,SE,136,2.0,5.0,51,0.00,SCT,,0.00,WeatherDisplay:10.37,2013-11-09 23:00:00,
2013-11-09 15:15:00,69.4,50.5,29.89,SE,140,0.0,4.0,51,0.00,SCT,,0.00,WeatherDisplay:10.37,2013-11-09 23:15:00,
2013-11-09 15:30:00,69.3,48.8,29.89,SE,131,1.0,5.0,48,0.00,SCT,,0.00,WeatherDisplay:10.37,2013-11-09 23:30:00,
2013-11-09 15:45:00,69.3,47.6,29.89,ESE,122,1.0,5.0,46,0.00,SCT,,0.00,WeatherDisplay:10.37,2013-11-09 23:45:00,
2013-11-09 16:00:00,68.9,47.3,29.89,SE,134,1.0,4.0,46,0.00,SCT,,0.00,WeatherDisplay:10.37,2013-11-10 00:00:00,
2013-11-09 16:15:00,68.8,47.2,29.89,SE,131,1.0,4.0,46,0.00,SCT,,0.00,WeatherDisplay:10.37,2013-11-10 00:15:00,
2013-11-09 16:30:00,68.6,47.5,29.89,SSE,154,0.0,4.0,47,0.00,SCT,,0.00,WeatherDisplay:10.37,2013-11-10 00:30:00,
2013-11-09 16:45:00,67.8,48.0,29.89,SE,141,0.0,3.0,49,0.00,SCT,,0.00,WeatherDisplay:10.37,2013-11-10 00:45:00,
2013-11-09 17:00:00,65.4,49.3,29.90,ESE,122,0.0,3.0,56,0.00,SCT,,0.00,WeatherDisplay:10.37,2013-11-10 01:00:00,
2013-11-09 17:15:00,63.4,49.7,29.90,ESE,122,0.0,1.0,61,0.00,SCT,,0.00,WeatherDisplay:10.37,2013-11-10 01:15:00,
2013-11-09 17:30:00,61.7,49.8,29.90,ESE,122,0.0,1.0,65,0.00,SCT,,0.00,WeatherDisplay:10.37,2013-11-10 01:30:00,
2013-11-09 17:45:00,60.4,50.2,29.90,ESE,122,0.0,0.0,69,0.00,SCT,,0.00,WeatherDisplay:10.37,2013-11-10 01:45:00,
2013-11-09 18:00:00,59.3,49.2,29.91,ESE,122,0.0,0.0,69,0.00,SCT,,0.00,WeatherDisplay:10.37,2013-11-10 02:00:00,
2013-11-09 18:15:00,57.9,48.9,29.92,ESE,122,0.0,0.0,72,0.00,SCT,,0.00,WeatherDisplay:10.37,2013-11-10 02:15:00,
2013-11-09 18:30:00,57.0,48.1,29.92,ESE,122,0.0,0.0,72,0.00,SCT,,0.00,WeatherDisplay:10.37,2013-11-10 02:30:00,
2013-11-09 18:45:00,56.1,48.3,29.93,ESE,122,0.0,0.0,75,0.00,SCT,,0.00,WeatherDisplay:10.37,2013-11-10 02:45:00,
2013-11-09 19:00:00,55.9,49.5,29.93,ESE,122,0.0,1.0,79,0.00,SCT,,0.00,WeatherDisplay:10.37,2013-11-10 03:00:00,
2013-11-09 19:15:00,55.4,49.0,29.94,ESE,122,0.0,1.0,79,0.00,SCT,,0.00,WeatherDisplay:10.37,2013-11-10 03:15:00,
2013-11-09 19:30:00,54.8,48.4,29.94,ESE,122,0.0,1.0,79,0.00,SCT,,0.00,WeatherDisplay:10.37,2013-11-10 03:30:00,
2013-11-09 19:45:00,53.8,47.7,29.95,ESE,122,0.0,0.0,80,0.00,SCT,,0.00,WeatherDisplay:10.37,2013-11-10 03:45:00,
2013-11-09 20:00:00,52.8,47.1,29.95,ESE,122,0.0,0.0,81,0.00,SCT,,0.00,WeatherDisplay:10.37,2013-11-10 04:00:00,
2013-11-09 20:15:00,52.1,46.4,29.95,ESE,122,0.0,0.0,81,0.00,SCT,,0.00,WeatherDisplay:10.37,2013-11-10 04:15:00,
2013-11-09 20:30:00,51.3,46.0,29.95,ESE,122,0.0,1.0,82,0.00,SCT,,0.00,WeatherDisplay:10.37,2013-11-10 04:30:00,
2013-11-09 20:45:00,50.6,46.0,29.95,ESE,122,0.0,0.0,84,0.00,SCT,,0.00,WeatherDisplay:10.37,2013-11-10 04:45:00,
2013-11-09 21:00:00,50.1,45.5,29.95,ESE,122,0.0,0.0,84,0.00,SCT,,0.00,WeatherDisplay:10.37,2013-11-10 05:00:00,
2013-11-09 21:15:00,49.7,45.3,29.96,ESE,122,0.0,0.0,85,0.00,SCT,,0.00,WeatherDisplay:10.37,2013-11-10 05:15:00,
2013-11-09 21:30:00,49.2,44.9,29.96,ESE,122,0.0,0.0,85,0.00,SCT,,0.00,WeatherDisplay:10.37,2013-11-10 05:30:00,
2013-11-09 21:45:00,48.9,44.9,29.97,ESE,122,0.0,0.0,86,0.00,SCT,,0.00,WeatherDisplay:10.37,2013-11-10 05:45:00,
2013-11-09 22:00:00,48.4,44.7,29.97,ESE,122,0.0,0.0,87,0.00,SCT,,0.00,WeatherDisplay:10.37,2013-11-10 06:00:00,
2013-11-09 22:15:00,48.0,44.3,29.98,ESE,122,0.0,0.0,87,0.00,SCT,,0.00,WeatherDisplay:10.37,2013-11-10 06:15:00,
2013-11-09 22:30:00,47.9,44.6,29.98,ESE,122,0.0,0.0,88,0.00,SCT,,0.00,WeatherDisplay:10.37,2013-11-10 06:30:00,
2013-11-09 22:45:00,47.6,44.2,29.98,ESE,122,0.0,0.0,88,0.00,SCT,,0.00,WeatherDisplay:10.37,2013-11-10 06:45:00,
2013-11-09 23:00:00,47.2,43.9,29.98,ESE,122,0.0,0.0,88,0.00,SCT,,0.00,WeatherDisplay:10.37,2013-11-10 07:00:00,
2013-11-09 23:15:00,47.1,44.0,29.98,ESE,122,0.0,0.0,89,0.00,SCT,,0.00,WeatherDisplay:10.37,2013-11-10 07:15:00,
2013-11-09 23:30:00,46.9,43.5,29.98,ESE,122,0.0,0.0,88,0.00,SCT,,0.00,WeatherDisplay:10.37,2013-11-10 07:30:00,
2013-11-09 23:45:00,46.4,43.3,29.98,ESE,122,0.0,0.0,89,0.00,SCT,,0.00,WeatherDisplay:10.37,2013-11-10 07:45:00,